Time;durP1;ratioP1;P1;durP2;ratioP2;P2;SDS_P1;SDS_P2;PMS_P1;PMS_P2;Temp;Humidity;BMP_temperature;BMP_pressure;BME280_temperature;BME280_humidity;BME280_pressure;Samples;Min_cycle;Max_cycle;Signal;HPM_P1;HPM_P2
2022/12/11 00:02:20;;;;;;;3.92;3.53;;;;;;;;;;4956469;28;20111;-29
2022/12/11 00:04:46;;;;;;;5.25;3.63;;;;;;;;;;4956400;29;20043;-29
2022/12/11 00:07:12;;;;;;;4.32;4.03;;;;;;;;;;4956565;29;20027;-29
2022/12/11 00:09:39;;;;;;;5.00;4.05;;;;;;;;;;4956523;29;20047;-29
2022/12/11 00:12:06;;;;;;;4.57;3.78;;;;;;;;;;4956250;28;20046;-29
2022/12/11 00:14:33;;;;;;;4.00;3.70;;;;;;;;;;4956710;29;20027;-29
2022/12/11 00:16:59;;;;;;;4.45;3.50;;;;;;;;;;4956470;29;20062;-29
2022/12/11 00:19:25;;;;;;;4.88;4.43;;;;;;;;;;4956366;29;20023;-29
2022/12/11 00:21:51;;;;;;;4.40;4.10;;;;;;;;;;4956177;28;20027;-29
2022/12/11 00:24:17;;;;;;;4.35;4.05;;;;;;;;;;4956646;29;20478;-30
2022/12/11 00:26:43;;;;;;;4.72;4.32;;;;;;;;;;4956348;29;20031;-29
2022/12/11 00:29:13;;;;;;;4.78;4.38;;;;;;;;;;4956346;29;20047;-29
2022/12/11 00:31:40;;;;;;;3.67;3.25;;;;;;;;;;4956538;29;20031;-29
2022/12/11 00:34:06;;;;;;;4.00;3.70;;;;;;;;;;4955303;28;20118;-28
2022/12/11 00:36:32;;;;;;;4.00;3.70;;;;;;;;;;4956250;29;20086;-29
2022/12/11 00:38:58;;;;;;;4.82;4.43;;;;;;;;;;4956258;29;20035;-29
2022/12/11 00:41:25;;;;;;;4.70;4.18;;;;;;;;;;4956157;29;20028;-29
2022/12/11 00:43:51;;;;;;;4.60;3.63;;;;;;;;;;4955182;28;20031;-29
2022/12/11 00:46:17;;;;;;;4.15;3.78;;;;;;;;;;4956449;29;20055;-29
2022/12/11 00:48:45;;;;;;;4.18;3.88;;;;;;;;;;4956438;29;20030;-29
2022/12/11 00:51:11;;;;;;;4.72;4.32;;;;;;;;;;4956123;29;20039;-29
2022/12/11 00:53:38;;;;;;;4.70;4.30;;;;;;;;;;4956062;28;20122;-29
2022/12/11 00:56:15;;;;;;;4.22;3.90;;;;;;;;;;4956094;29;20031;-29
2022/12/11 00:58:41;;;;;;;4.15;3.85;;;;;;;;;;4956345;29;20107;-29
2022/12/11 01:01:09;;;;;;;4.07;3.67;;;;;;;;;;4955967;29;20042;-29
2022/12/11 01:03:35;;;;;;;5.05;4.55;;;;;;;;;;4955769;28;20044;-30
2022/12/11 01:06:01;;;;;;;4.28;3.88;;;;;;;;;;4956017;29;20035;-29
2022/12/11 01:08:28;;;;;;;3.83;3.53;;;;;;;;;;4956249;29;20107;-29
2022/12/11 01:11:04;;;;;;;4.53;4.13;;;;;;;;;;4955974;29;20032;-29
2022/12/11 01:13:31;;;;;;;4.53;4.13;;;;;;;;;;4955913;28;20090;-29
2022/12/11 01:15:57;;;;;;;3.97;3.67;;;;;;;;;;4956210;29;20378;-29
2022/12/11 01:18:23;;;;;;;3.65;3.35;;;;;;;;;;4956204;29;20034;-29
2022/12/11 01:20:49;;;;;;;4.55;4.15;;;;;;;;;;4956606;29;20350;-29
2022/12/11 01:23:15;;;;;;;4.13;3.72;;;;;;;;;;4956084;28;20415;-29
2022/12/11 01:25:42;;;;;;;4.47;4.05;;;;;;;;;;4959223;29;20074;-29
2022/12/11 01:28:08;;;;;;;3.95;3.63;;;;;;;;;;4959238;29;20077;-29
2022/12/11 01:30:35;;;;;;;4.60;4.20;;;;;;;;;;4959428;29;20027;-29
2022/12/11 01:33:02;;;;;;;3.60;3.33;;;;;;;;;;4959055;28;20035;-29
2022/12/11 01:35:28;;;;;;;4.82;4.40;;;;;;;;;;4959344;29;20031;-29
2022/12/11 01:37:54;;;;;;;6.75;4.03;;;;;;;;;;4959049;29;20477;-29
2022/12/11 01:40:21;;;;;;;4.35;4.05;;;;;;;;;;4959252;29;20442;-29
2022/12/11 01:42:47;;;;;;;3.97;3.65;;;;;;;;;;4959154;28;20031;-29
2022/12/11 01:45:13;;;;;;;4.57;4.20;;;;;;;;;;4958860;29;20439;-29
2022/12/11 01:47:40;;;;;;;4.60;4.20;;;;;;;;;;4958897;29;20031;-29
2022/12/11 01:50:06;;;;;;;4.30;3.90;;;;;;;;;;4959138;29;20031;-29
2022/12/11 01:52:32;;;;;;;3.90;3.60;;;;;;;;;;4958930;28;20473;-29
2022/12/11 01:54:59;;;;;;;6.05;4.00;;;;;;;;;;4958777;29;20030;-29
2022/12/11 01:57:26;;;;;;;4.60;3.95;;;;;;;;;;4959050;29;20090;-29
2022/12/11 01:59:52;;;;;;;3.72;3.42;;;;;;;;;;4958703;29;20110;-28
2022/12/11 02:02:24;;;;;;;4.10;3.80;;;;;;;;;;4957580;28;20031;-29
2022/12/11 02:04:50;;;;;;;4.63;4.22;;;;;;;;;;4958468;29;20106;-29
2022/12/11 02:07:16;;;;;;;4.13;3.83;;;;;;;;;;4958545;29;20422;-29
2022/12/11 02:09:44;;;;;;;4.38;4.00;;;;;;;;;;4958483;29;20085;-29
2022/12/11 02:12:29;;;;;;;4.30;3.97;;;;;;;;;;4958391;28;20024;-29
2022/12/11 02:14:58;;;;;;;4.13;3.83;;;;;;;;;;4958703;29;20062;-29
2022/12/11 02:17:30;;;;;;;4.43;4.10;;;;;;;;;;4958914;29;20459;-29
2022/12/11 02:20:19;;;;;;;4.53;4.13;;;;;;;;;;4958338;29;20069;-29
2022/12/11 02:22:51;;;;;;;4.07;3.78;;;;;;;;;;4950632;28;20062;-29
2022/12/11 02:25:25;;;;;;;4.20;3.90;;;;;;;;;;4958479;29;20090;-29
2022/12/11 02:27:55;;;;;;;4.90;4.50;;;;;;;;;;4958498;29;20027;-29
2022/12/11 02:30:22;;;;;;;3.92;3.63;;;;;;;;;;4958097;29;20031;-29
2022/12/11 02:32:56;;;;;;;4.30;4.00;;;;;;;;;;4958234;28;20093;-29
2022/12/11 02:35:24;;;;;;;4.38;3.67;;;;;;;;;;4956030;28;20038;-29
2022/12/11 02:37:54;;;;;;;3.92;3.63;;;;;;;;;;4958007;29;20047;-28
2022/12/11 02:40:22;;;;;;;4.20;3.90;;;;;;;;;;4958212;29;20084;-29
2022/12/11 02:42:49;;;;;;;3.83;3.53;;;;;;;;;;4957787;28;20047;-29
2022/12/11 02:45:16;;;;;;;4.30;4.00;;;;;;;;;;4958137;29;20034;-29
2022/12/11 02:47:43;;;;;;;4.35;3.95;;;;;;;;;;4957801;29;20043;-29
2022/12/11 02:50:12;;;;;;;4.57;4.22;;;;;;;;;;4956825;29;20031;-29
2022/12/11 02:52:39;;;;;;;3.60;3.30;;;;;;;;;;4957783;28;20031;-29
2022/12/11 02:55:07;;;;;;;4.47;4.07;;;;;;;;;;4957906;29;20035;-29
2022/12/11 02:57:42;;;;;;;4.13;3.83;;;;;;;;;;4957653;29;20471;-29
2022/12/11 03:00:09;;;;;;;5.90;4.28;;;;;;;;;;4957853;29;20031;-29
2022/12/11 03:02:36;;;;;;;4.28;3.97;;;;;;;;;;4957603;28;20055;-29
2022/12/11 03:05:02;;;;;;;5.38;3.75;;;;;;;;;;4953230;29;20126;-29
2022/12/11 03:07:34;;;;;;;3.90;3.60;;;;;;;;;;4938305;29;20098;-29
2022/12/11 03:10:00;;;;;;;4.25;3.85;;;;;;;;;;4938288;29;20027;-29
2022/12/11 03:12:31;;;;;;;4.80;4.40;;;;;;;;;;4938150;29;20363;-29
2022/12/11 03:14:59;;;;;;;4.38;3.97;;;;;;;;;;4938435;29;20478;-29
2022/12/11 03:17:34;;;;;;;4.43;4.03;;;;;;;;;;4938440;29;20027;-29
2022/12/11 03:20:06;;;;;;;4.68;4.18;;;;;;;;;;4938305;29;20047;-29
2022/12/11 03:22:36;;;;;;;3.85;3.55;;;;;;;;;;4938183;29;20129;-29
2022/12/11 03:25:12;;;;;;;4.18;3.75;;;;;;;;;;4938059;29;20424;-29
2022/12/11 03:27:38;;;;;;;4.43;4.00;;;;;;;;;;4938494;29;20474;-29
2022/12/11 03:30:07;;;;;;;3.72;3.42;;;;;;;;;;4952928;29;20028;-29
2022/12/11 03:32:39;;;;;;;3.90;3.47;;;;;;;;;;4938004;29;20363;-29
2022/12/11 03:35:11;;;;;;;4.18;3.88;;;;;;;;;;4952880;29;20036;-29
2022/12/11 03:37:37;;;;;;;;;;;;;;;;;;4938215;29;20027;-29
2022/12/11 03:40:09;;;;;;;4.10;3.80;;;;;;;;;;4937798;29;20298;-29
2022/12/11 03:42:37;;;;;;;4.00;3.70;;;;;;;;;;4937794;29;20036;-29
2022/12/11 03:45:04;;;;;;;4.28;3.97;;;;;;;;;;4937928;29;20019;-29
2022/12/11 03:47:30;;;;;;;3.75;3.45;;;;;;;;;;4937298;29;20059;-29
2022/12/11 03:49:58;;;;;;;3.80;3.50;;;;;;;;;;4937621;29;20555;-29
2022/12/11 03:52:26;;;;;;;4.90;4.00;;;;;;;;;;4937507;29;20039;-29
2022/12/11 03:54:53;;;;;;;4.03;3.72;;;;;;;;;;4937834;29;20036;-29
2022/12/11 03:57:22;;;;;;;5.63;5.22;;;;;;;;;;4937786;29;20046;-29
2022/12/11 03:59:48;;;;;;;3.50;3.20;;;;;;;;;;4937419;29;20036;-29
2022/12/11 04:02:15;;;;;;;3.60;3.35;;;;;;;;;;4937345;29;20542;-29
2022/12/11 04:04:41;;;;;;;3.70;3.40;;;;;;;;;;4952114;29;20043;-29
2022/12/11 04:07:08;;;;;;;4.68;4.28;;;;;;;;;;4956822;29;20038;-29
2022/12/11 04:09:34;;;;;;;3.60;3.33;;;;;;;;;;4956557;29;20035;-29
2022/12/11 04:12:00;;;;;;;3.88;3.58;;;;;;;;;;4956389;28;20043;-29
2022/12/11 04:17:11;;;;;;;4.25;3.85;;;;;;;;;;4956544;29;20042;-29
2022/12/11 04:25:07;;;;;;;4.20;3.90;;;;;;;;;;4956675;29;20054;-29
2022/12/11 04:27:48;;;;;;;4.13;3.83;;;;;;;;;;4956362;29;20036;-29
2022/12/11 04:30:19;;;;;;;3.80;3.47;;;;;;;;;;4956697;29;20098;-29
2022/12/11 04:32:45;;;;;;;4.10;3.80;;;;;;;;;;4956252;28;20023;-29
2022/12/11 04:35:12;;;;;;;4.32;4.03;;;;;;;;;;4956569;29;20410;-29
2022/12/11 04:37:39;;;;;;;4.82;4.07;;;;;;;;;;4956309;29;20456;-29
2022/12/11 04:40:07;;;;;;;4.18;3.88;;;;;;;;;;4956513;29;20081;-29
2022/12/11 04:42:33;;;;;;;4.10;3.70;;;;;;;;;;4956078;28;20425;-29
2022/12/11 04:44:59;;;;;;;5.13;4.63;;;;;;;;;;4956458;29;20114;-29
2022/12/11 04:47:26;;;;;;;3.97;3.67;;;;;;;;;;4956172;29;20462;-29
2022/12/11 04:49:52;;;;;;;4.00;3.70;;;;;;;;;;4956456;29;20392;-29
2022/12/11 04:52:19;;;;;;;4.03;3.72;;;;;;;;;;4956135;28;20355;-29
2022/12/11 04:54:45;;;;;;;3.78;3.47;;;;;;;;;;4956374;29;20027;-29
2022/12/11 04:57:11;;;;;;;3.65;3.35;;;;;;;;;;4956135;29;20094;-30
2022/12/11 04:59:37;;;;;;;4.43;4.13;;;;;;;;;;4958341;28;20027;-29
2022/12/11 05:02:04;;;;;;;3.72;3.42;;;;;;;;;;4960383;28;20032;-29
2022/12/11 05:04:31;;;;;;;3.70;3.40;;;;;;;;;;4959654;29;20169;-29
2022/12/11 05:06:58;;;;;;;4.05;3.75;;;;;;;;;;4959611;29;20050;-29
2022/12/11 05:09:25;;;;;;;4.07;3.78;;;;;;;;;;4959650;29;20106;-30
2022/12/11 05:11:51;;;;;;;4.88;4.57;;;;;;;;;;4959434;28;20110;-29
2022/12/11 05:14:17;;;;;;;4.10;3.80;;;;;;;;;;4959530;29;20114;-29
2022/12/11 05:16:43;;;;;;;3.72;3.50;;;;;;;;;;4959469;29;20101;-29
2022/12/11 05:19:10;;;;;;;3.78;3.58;;;;;;;;;;4959460;29;20098;-29
2022/12/11 05:21:36;;;;;;;4.05;3.75;;;;;;;;;;4959612;29;20340;-29
2022/12/11 05:24:02;;;;;;;3.55;3.25;;;;;;;;;;4959277;28;20106;-29
2022/12/11 05:26:28;;;;;;;3.47;3.17;;;;;;;;;;4959324;29;20034;-29
2022/12/11 05:28:55;;;;;;;5.28;4.32;;;;;;;;;;4959545;29;20019;-29
2022/12/11 05:31:22;;;;;;;3.47;3.28;;;;;;;;;;4959272;29;20038;-29
2022/12/11 05:33:49;;;;;;;3.45;3.25;;;;;;;;;;4959070;28;20031;-30
2022/12/11 05:36:17;;;;;;;4.78;4.20;;;;;;;;;;4959095;29;20458;-29
2022/12/11 05:38:43;;;;;;;4.70;4.30;;;;;;;;;;4959327;29;20026;-29
2022/12/11 05:41:11;;;;;;;4.10;3.80;;;;;;;;;;4958926;29;20043;-29
2022/12/11 05:43:38;;;;;;;4.35;4.05;;;;;;;;;;4958948;28;20344;-29
2022/12/11 05:46:14;;;;;;;4.43;4.00;;;;;;;;;;4958955;29;20027;-29
2022/12/11 05:48:41;;;;;;;5.13;3.55;;;;;;;;;;4958940;29;20034;-29
2022/12/11 05:51:07;;;;;;;3.70;3.45;;;;;;;;;;4958855;29;20039;-29
2022/12/11 05:53:35;;;;;;;3.50;3.20;;;;;;;;;;4958799;28;20432;-29
2022/12/11 05:56:05;;;;;;;4.05;3.75;;;;;;;;;;4958788;29;20455;-29
2022/12/11 05:58:32;;;;;;;3.40;3.20;;;;;;;;;;4958769;29;20035;-29
2022/12/11 06:00:58;;;;;;;3.65;3.45;;;;;;;;;;4958887;29;20090;-28
2022/12/11 06:03:24;;;;;;;4.30;3.95;;;;;;;;;;4958496;28;20047;-29
2022/12/11 06:05:50;;;;;;;4.28;3.97;;;;;;;;;;4958891;29;20038;-29
2022/12/11 06:08:16;;;;;;;3.72;3.42;;;;;;;;;;4958841;29;20046;-29
2022/12/11 06:10:46;;;;;;;3.63;3.38;;;;;;;;;;4958261;28;20055;-29
2022/12/11 06:13:12;;;;;;;3.60;3.40;;;;;;;;;;4958520;28;20418;-29
2022/12/11 06:15:39;;;;;;;4.07;3.78;;;;;;;;;;4958720;29;20351;-29
2022/12/11 06:18:05;;;;;;;3.60;3.40;;;;;;;;;;4958345;29;20035;-29
2022/12/11 06:20:32;;;;;;;3.83;3.53;;;;;;;;;;4958561;29;20041;-29
2022/12/11 06:22:58;;;;;;;3.63;3.28;;;;;;;;;;4958323;28;20056;-30
2022/12/11 06:25:24;;;;;;;4.30;3.97;;;;;;;;;;4958257;29;20031;-29
2022/12/11 06:27:51;;;;;;;4.00;3.70;;;;;;;;;;4958492;29;20048;-29
2022/12/11 06:30:17;;;;;;;3.95;3.65;;;;;;;;;;4958204;29;20023;-29
2022/12/11 06:32:43;;;;;;;4.05;3.78;;;;;;;;;;4958035;28;20069;-29
2022/12/11 06:35:10;;;;;;;4.00;3.70;;;;;;;;;;4958072;29;20035;-29
2022/12/11 06:37:36;;;;;;;3.58;3.28;;;;;;;;;;4958017;29;20032;-29
2022/12/11 06:40:03;;;;;;;4.20;3.90;;;;;;;;;;4957937;29;20086;-29
2022/12/11 06:42:30;;;;;;;4.00;3.70;;;;;;;;;;4957952;28;20027;-29
2022/12/11 06:44:58;;;;;;;4.40;4.07;;;;;;;;;;4958195;29;20355;-29
2022/12/11 06:47:27;;;;;;;4.05;3.75;;;;;;;;;;4957892;29;20026;-29
2022/12/11 06:49:54;;;;;;;3.60;3.30;;;;;;;;;;4958131;29;20151;-30
2022/12/11 06:52:20;;;;;;;3.38;3.10;;;;;;;;;;4958468;28;20403;-29
2022/12/11 06:54:47;;;;;;;3.67;3.38;;;;;;;;;;4958036;29;20382;-29
2022/12/11 06:57:13;;;;;;;3.67;3.38;;;;;;;;;;4957992;29;20043;-28
2022/12/11 06:59:39;;;;;;;4.25;3.85;;;;;;;;;;4957637;29;20032;-29
2022/12/11 07:02:05;;;;;;;4.13;3.83;;;;;;;;;;4957457;28;20125;-29
2022/12/11 07:04:31;;;;;;;4.30;4.00;;;;;;;;;;4957436;29;20055;-30
2022/12/11 07:06:58;;;;;;;3.65;3.45;;;;;;;;;;4957419;29;20027;-29
2022/12/11 07:09:24;;;;;;;3.90;3.60;;;;;;;;;;4957783;29;20071;-29
2022/12/11 07:11:50;;;;;;;3.72;3.42;;;;;;;;;;4957326;28;20031;-29
2022/12/11 07:14:17;;;;;;;3.83;3.53;;;;;;;;;;4957396;29;20027;-30
2022/12/11 07:16:43;;;;;;;3.72;3.42;;;;;;;;;;4956386;29;20066;-30
2022/12/11 07:19:09;;;;;;;4.38;3.50;;;;;;;;;;4956386;29;20366;-30
2022/12/11 07:21:36;;;;;;;3.78;3.47;;;;;;;;;;4955730;28;20031;-30
2022/12/11 07:24:02;;;;;;;4.65;4.15;;;;;;;;;;4957396;28;20028;-30
2022/12/11 07:26:29;;;;;;;4.38;3.97;;;;;;;;;;4957128;29;20023;-29
2022/12/11 07:28:58;;;;;;;3.75;3.45;;;;;;;;;;4957429;29;20332;-29
2022/12/11 07:31:25;;;;;;;3.55;3.30;;;;;;;;;;4957103;29;20526;-29
2022/12/11 07:33:54;;;;;;;3.63;3.33;;;;;;;;;;4956992;28;20486;-29
2022/12/11 07:36:22;;;;;;;3.40;3.20;;;;;;;;;;4956999;29;20039;-30
2022/12/11 07:38:48;;;;;;;4.25;3.85;;;;;;;;;;4956909;29;20031;-29
2022/12/11 07:41:14;;;;;;;4.18;3.72;;;;;;;;;;4956815;29;20124;-29
2022/12/11 07:43:41;;;;;;;3.78;3.47;;;;;;;;;;4956813;28;20418;-29
2022/12/11 07:46:09;;;;;;;4.05;3.75;;;;;;;;;;4957100;29;20058;-29
2022/12/11 07:48:36;;;;;;;3.58;3.28;;;;;;;;;;4956788;29;20027;-29
2022/12/11 07:51:09;;;;;;;5.25;3.83;;;;;;;;;;4956781;29;20095;-30
2022/12/11 07:53:35;;;;;;;4.40;3.72;;;;;;;;;;4956702;28;20070;-30
2022/12/11 07:56:01;;;;;;;3.60;3.30;;;;;;;;;;4956732;29;20046;-29
2022/12/11 07:58:28;;;;;;;3.25;3.05;;;;;;;;;;4956708;29;20046;-29
2022/12/11 08:00:54;;;;;;;3.85;3.55;;;;;;;;;;4956822;29;20059;-29
2022/12/11 08:03:20;;;;;;;3.40;3.17;;;;;;;;;;4956622;28;20399;-29
2022/12/11 08:05:50;;;;;;;3.35;3.15;;;;;;;;;;4956936;29;20028;-30
2022/12/11 08:08:17;;;;;;;3.80;3.45;;;;;;;;;;4956537;29;20047;-29
2022/12/11 08:10:43;;;;;;;4.00;3.70;;;;;;;;;;4955567;29;20033;-29
2022/12/11 08:13:09;;;;;;;3.53;3.33;;;;;;;;;;4956451;28;20332;-30
2022/12/11 08:15:36;;;;;;;5.45;3.40;;;;;;;;;;4956498;29;20172;-29
2022/12/11 08:18:02;;;;;;;3.63;3.42;;;;;;;;;;4956458;29;20020;-29
2022/12/11 08:20:29;;;;;;;3.58;3.28;;;;;;;;;;4956652;29;20035;-29
2022/12/11 08:22:55;;;;;;;4.03;3.72;;;;;;;;;;4956592;28;20039;-30
2022/12/11 08:25:22;;;;;;;3.80;3.50;;;;;;;;;;4956637;29;20024;-30
2022/12/11 08:27:48;;;;;;;4.63;3.55;;;;;;;;;;4956299;29;20019;-29
2022/12/11 08:30:14;;;;;;;3.42;3.13;;;;;;;;;;4956376;29;20045;-29
2022/12/11 08:32:41;;;;;;;3.47;3.28;;;;;;;;;;4956821;28;20038;-29
2022/12/11 08:35:08;;;;;;;3.97;3.60;;;;;;;;;;4960536;29;20038;-29
2022/12/11 08:37:34;;;;;;;4.35;4.05;;;;;;;;;;4960514;29;20086;-29
2022/12/11 08:40:00;;;;;;;3.83;3.53;;;;;;;;;;4960225;29;20031;-29
2022/12/11 08:42:26;;;;;;;3.47;3.28;;;;;;;;;;4960208;28;20031;-29
2022/12/11 08:44:52;;;;;;;3.40;3.20;;;;;;;;;;4960387;29;20027;-29
2022/12/11 08:47:19;;;;;;;3.83;3.47;;;;;;;;;;4960342;29;20441;-29
2022/12/11 08:49:45;;;;;;;3.72;3.42;;;;;;;;;;4960021;29;20027;-29
2022/12/11 08:52:11;;;;;;;4.15;3.85;;;;;;;;;;4959890;28;20046;-29
2022/12/11 08:54:38;;;;;;;4.15;3.85;;;;;;;;;;4960244;29;20031;-29
2022/12/11 08:57:04;;;;;;;4.00;3.70;;;;;;;;;;4959887;29;20097;-29
2022/12/11 08:59:31;;;;;;;3.83;3.53;;;;;;;;;;4960106;29;20094;-29
2022/12/11 09:01:57;;;;;;;3.00;2.80;;;;;;;;;;4959634;28;20031;-29
2022/12/11 09:04:23;;;;;;;3.63;3.42;;;;;;;;;;4959534;29;20051;-29
2022/12/11 09:06:49;;;;;;;3.30;3.10;;;;;;;;;;4959961;29;20443;-29
2022/12/11 09:09:15;;;;;;;3.65;3.35;;;;;;;;;;4959674;29;20047;-29
2022/12/11 09:11:42;;;;;;;3.42;3.22;;;;;;;;;;4959609;29;20028;-29
2022/12/11 09:14:08;;;;;;;4.00;3.70;;;;;;;;;;4959443;28;20068;-29
2022/12/11 09:16:39;;;;;;;3.75;3.45;;;;;;;;;;4959503;29;20031;-29
2022/12/11 09:19:06;;;;;;;3.42;3.22;;;;;;;;;;4959541;29;20471;-29
2022/12/11 09:21:32;;;;;;;4.03;3.72;;;;;;;;;;4959322;29;20035;-29
2022/12/11 09:24:00;;;;;;;3.78;3.50;;;;;;;;;;4959305;28;20023;-29
2022/12/11 09:26:26;;;;;;;3.05;2.85;;;;;;;;;;4959619;29;20090;-29
2022/12/11 09:28:53;;;;;;;3.13;2.92;;;;;;;;;;4959580;29;20023;-29
2022/12/11 09:31:24;;;;;;;3.50;3.30;;;;;;;;;;4959301;29;20106;-29
2022/12/11 09:33:51;;;;;;;4.05;3.75;;;;;;;;;;4959194;28;20030;-29
2022/12/11 09:36:17;;;;;;;3.75;3.45;;;;;;;;;;4958359;29;20039;-29
2022/12/11 09:38:44;;;;;;;3.50;3.28;;;;;;;;;;4959090;29;20038;-29
2022/12/11 09:41:16;;;;;;;3.50;3.20;;;;;;;;;;4958966;29;20526;-29
2022/12/11 09:43:45;;;;;;;3.33;3.13;;;;;;;;;;4959016;28;20031;-29
2022/12/11 09:46:15;;;;;;;3.80;3.50;;;;;;;;;;4958383;28;20506;-29
2022/12/11 09:48:43;;;;;;;3.35;3.05;;;;;;;;;;4958931;29;20359;-29
2022/12/11 09:51:29;;;;;;;4.40;4.10;;;;;;;;;;4958882;29;20030;-29
2022/12/11 09:53:59;;;;;;;4.10;3.80;;;;;;;;;;4958836;28;20066;-29
2022/12/11 09:56:27;;;;;;;3.47;3.28;;;;;;;;;;4958804;29;20047;-29
2022/12/11 09:58:59;;;;;;;3.45;3.25;;;;;;;;;;4958760;29;20023;-29
2022/12/11 10:01:25;;;;;;;4.07;3.70;;;;;;;;;;4958673;29;20378;-29
2022/12/11 10:03:51;;;;;;;2.92;2.72;;;;;;;;;;4958565;28;20066;-29
2022/12/11 10:06:24;;;;;;;3.90;3.60;;;;;;;;;;4958654;29;20115;-30
2022/12/11 10:08:56;;;;;;;3.67;3.38;;;;;;;;;;4958849;29;20019;-29
2022/12/11 10:11:31;;;;;;;4.00;3.50;;;;;;;;;;4958782;29;20027;-29
2022/12/11 10:14:06;;;;;;;3.78;3.50;;;;;;;;;;4958753;28;20046;-29
2022/12/11 10:16:36;;;;;;;3.85;3.55;;;;;;;;;;4958747;29;20034;-30
2022/12/11 10:19:02;;;;;;;3.33;3.13;;;;;;;;;;4958439;29;20101;-29
2022/12/11 10:21:33;;;;;;;3.70;3.40;;;;;;;;;;4958313;29;20042;-29
2022/12/11 10:24:02;;;;;;;3.50;3.30;;;;;;;;;;4958580;28;20020;-29
2022/12/11 10:26:29;;;;;;;4.03;3.72;;;;;;;;;;4958203;29;20027;-29
2022/12/11 10:28:58;;;;;;;3.03;2.83;;;;;;;;;;4958571;29;20039;-29
2022/12/11 10:31:43;;;;;;;3.40;3.20;;;;;;;;;;4957300;29;20035;-29
2022/12/11 10:34:12;;;;;;;3.33;3.13;;;;;;;;;;4958335;28;20027;-29
2022/12/11 10:36:39;;;;;;;3.65;3.35;;;;;;;;;;4958336;29;20111;-29
2022/12/11 10:39:13;;;;;;;3.92;3.63;;;;;;;;;;4958309;29;20102;-29
2022/12/11 10:41:41;;;;;;;2.90;2.70;;;;;;;;;;4957944;29;20114;-29
2022/12/11 10:44:16;;;;;;;3.17;2.97;;;;;;;;;;4957884;28;20050;-29
2022/12/11 10:46:42;;;;;;;3.03;2.83;;;;;;;;;;4957853;29;20034;-29
2022/12/11 10:49:19;;;;;;;3.97;3.67;;;;;;;;;;4957860;29;20028;-29
2022/12/11 10:51:46;;;;;;;3.58;3.28;;;;;;;;;;4957849;28;20486;-29
2022/12/11 10:54:18;;;;;;;3.70;3.40;;;;;;;;;;4956854;29;20038;-29
2022/12/11 10:56:46;;;;;;;3.60;3.30;;;;;;;;;;4956832;28;20035;-29
2022/12/11 10:59:21;;;;;;;3.70;3.45;;;;;;;;;;4956721;29;20047;-29
2022/12/11 11:01:47;;;;;;;3.42;3.22;;;;;;;;;;4956550;28;20053;-29
2022/12/11 11:04:15;;;;;;;3.38;3.15;;;;;;;;;;4957419;29;20110;-29
2022/12/11 11:06:41;;;;;;;3.83;3.53;;;;;;;;;;4957513;29;20034;-29
2022/12/11 11:09:27;;;;;;;3.03;2.83;;;;;;;;;;4957462;29;20027;-29
2022/12/11 11:11:53;;;;;;;3.17;2.97;;;;;;;;;;4957291;28;20128;-29
2022/12/11 11:14:21;;;;;;;3.65;3.45;;;;;;;;;;4957639;29;20094;-29
2022/12/11 11:16:49;;;;;;;3.67;3.38;;;;;;;;;;4957332;29;20041;-29
2022/12/11 11:19:29;;;;;;;3.53;3.33;;;;;;;;;;5113395;27;20437;-23
2022/12/11 11:21:57;;;;;;;4.35;3.95;;;;;;;;;;5112428;28;20042;-21
2022/12/11 11:24:28;;;;;;;3.47;3.17;;;;;;;;;;5112472;28;20095;-26
2022/12/11 11:26:54;;;;;;;3.90;3.58;;;;;;;;;;5112686;28;20136;-22
2022/12/11 11:29:27;;;;;;;4.18;3.88;;;;;;;;;;5112395;28;20048;-22
2022/12/11 11:31:53;;;;;;;3.30;3.10;;;;;;;;;;5112172;28;20043;-22
2022/12/11 11:34:21;;;;;;;4.10;3.80;;;;;;;;;;5112519;28;20336;-21
2022/12/11 11:36:56;;;;;;;3.80;3.50;;;;;;;;;;5112469;28;20020;-23
2022/12/11 11:39:25;;;;;;;3.05;2.85;;;;;;;;;;5112196;28;20089;-27
2022/12/11 11:42:04;;;;;;;3.20;3.00;;;;;;;;;;5112052;28;20098;-26
2022/12/11 11:44:36;;;;;;;3.22;3.03;;;;;;;;;;5112367;28;20027;-24
2022/12/11 11:47:10;;;;;;;3.33;3.10;;;;;;;;;;5111982;28;20093;-23
2022/12/11 11:49:46;;;;;;;3.28;3.08;;;;;;;;;;5112244;28;20103;-24
2022/12/11 11:52:17;;;;;;;3.10;2.90;;;;;;;;;;5112109;28;20047;-24
2022/12/11 11:54:43;;;;;;;;;;;;;;;;;;5112583;28;20051;-23
2022/12/11 11:57:24;;;;;;;3.50;3.20;;;;;;;;;;5111740;28;19908;-26
2022/12/11 11:59:55;;;;;;;3.88;3.58;;;;;;;;;;5111800;28;20519;-23
2022/12/11 12:02:22;;;;;;;3.65;3.35;;;;;;;;;;5111981;28;20028;-22
2022/12/11 12:04:50;;;;;;;3.58;3.38;;;;;;;;;;5110719;28;20020;-24
2022/12/11 12:07:35;;;;;;;3.55;3.35;;;;;;;;;;5111703;28;20030;-23
2022/12/11 12:10:16;;;;;;;3.58;3.35;;;;;;;;;;5111798;28;20047;-26
2022/12/11 12:13:03;;;;;;;3.10;2.90;;;;;;;;;;5111713;28;20051;-23
2022/12/11 12:15:34;;;;;;;3.30;3.05;;;;;;;;;;5111432;28;20027;-25
2022/12/11 12:18:10;;;;;;;3.17;2.97;;;;;;;;;;5111332;28;20048;-23
2022/12/11 12:21:00;;;;;;;3.50;3.30;;;;;;;;;;5111350;28;20042;-23
2022/12/11 12:23:29;;;;;;;3.17;2.97;;;;;;;;;;5111267;28;20020;-26
2022/12/11 12:26:00;;;;;;;3.72;3.53;;;;;;;;;;5112369;28;20338;-23
2022/12/11 12:28:26;;;;;;;;;;;;;;;;;;5111906;28;20366;-22
2022/12/11 12:31:02;;;;;;;3.40;3.20;;;;;;;;;;5097014;28;19933;-22
2022/12/11 12:33:36;;;;;;;3.00;2.80;;;;;;;;;;5097807;28;20336;-23
2022/12/11 12:36:15;;;;;;;3.45;3.15;;;;;;;;;;5097860;28;20024;-23
2022/12/11 12:38:50;;;;;;;3.40;3.10;;;;;;;;;;5096509;28;20039;-24
2022/12/11 12:41:35;;;;;;;3.53;3.22;;;;;;;;;;5097660;28;20036;-26
2022/12/11 12:44:28;;;;;;;3.80;3.50;;;;;;;;;;5097274;28;20069;-24
2022/12/11 12:47:03;;;;;;;3.40;3.13;;;;;;;;;;5093773;28;20036;-23
2022/12/11 12:49:29;;;;;;;4.13;3.83;;;;;;;;;;5097486;28;20028;-24
2022/12/11 12:51:56;;;;;;;3.25;2.95;;;;;;;;;;5096986;28;20474;-23
2022/12/11 12:54:23;;;;;;;3.50;3.30;;;;;;;;;;5097011;28;20036;-23
2022/12/11 12:56:49;;;;;;;3.08;2.88;;;;;;;;;;5097397;28;20028;-23
2022/12/11 12:59:23;;;;;;;3.58;3.35;;;;;;;;;;5097005;28;20028;-23
2022/12/11 13:01:59;;;;;;;3.10;2.90;;;;;;;;;;5097239;28;20042;-22
2022/12/11 13:04:28;;;;;;;3.00;2.80;;;;;;;;;;5096997;28;20100;-27
2022/12/11 13:06:55;;;;;;;3.35;3.15;;;;;;;;;;5096825;28;20020;-23
2022/12/11 13:09:23;;;;;;;3.10;2.90;;;;;;;;;;5096783;28;20030;-26
2022/12/11 13:11:53;;;;;;;3.20;3.00;;;;;;;;;;5096751;28;20027;-30
2022/12/11 13:14:19;;;;;;;2.67;2.47;;;;;;;;;;5097144;28;20078;-26
2022/12/11 13:16:50;;;;;;;3.20;3.00;;;;;;;;;;5096697;28;20031;-23
2022/12/11 13:19:17;;;;;;;2.70;2.50;;;;;;;;;;5096373;28;20482;-23
2022/12/11 13:21:54;;;;;;;3.45;3.25;;;;;;;;;;5096472;28;20024;-24
2022/12/11 13:24:20;;;;;;;3.65;3.35;;;;;;;;;;5096649;28;20046;-24
2022/12/11 13:26:47;;;;;;;3.47;3.28;;;;;;;;;;5096760;28;20024;-23
2022/12/11 13:29:30;;;;;;;3.45;3.15;;;;;;;;;;5096504;28;20474;-23
2022/12/11 13:31:58;;;;;;;3.10;2.90;;;;;;;;;;5096317;28;20044;-23
2022/12/11 13:34:25;;;;;;;3.25;3.05;;;;;;;;;;5096409;28;20028;-24
2022/12/11 13:36:52;;;;;;;3.60;3.35;;;;;;;;;;5096327;28;20028;-23
2022/12/11 13:39:21;;;;;;;3.17;2.97;;;;;;;;;;5096220;28;20082;-26
2022/12/11 13:41:51;;;;;;;3.60;3.30;;;;;;;;;;5095416;28;20060;-23
2022/12/11 13:44:29;;;;;;;3.13;2.92;;;;;;;;;;5096470;28;20020;-26
2022/12/11 13:46:57;;;;;;;3.83;3.53;;;;;;;;;;5096118;28;20024;-26
2022/12/11 13:49:26;;;;;;;2.83;2.63;;;;;;;;;;5096346;28;20024;-26
2022/12/11 13:51:53;;;;;;;2.90;2.70;;;;;;;;;;5096189;28;20035;-24
2022/12/11 13:54:19;;;;;;;3.58;3.38;;;;;;;;;;5096029;28;20034;-25
2022/12/11 13:56:55;;;;;;;4.30;3.97;;;;;;;;;;5095756;28;20055;-23
2022/12/11 13:59:26;;;;;;;2.97;2.78;;;;;;;;;;5096079;28;20043;-26
2022/12/11 14:01:54;;;;;;;4.15;3.85;;;;;;;;;;5096148;28;20028;-23
2022/12/11 14:04:21;;;;;;;3.05;2.85;;;;;;;;;;5095818;28;20028;-28
2022/12/11 14:06:47;;;;;;;3.50;3.30;;;;;;;;;;5096027;28;20335;-24
2022/12/11 14:09:17;;;;;;;3.38;3.17;;;;;;;;;;5095715;28;20039;-22
2022/12/11 14:11:45;;;;;;;3.38;3.17;;;;;;;;;;5094800;28;20024;-23
2022/12/11 14:14:22;;;;;;;3.33;3.05;;;;;;;;;;5095927;28;20036;-23
2022/12/11 14:16:50;;;;;;;3.47;3.20;;;;;;;;;;5095918;28;20032;-23
2022/12/11 14:19:18;;;;;;;3.25;3.05;;;;;;;;;;5095362;28;20463;-25
2022/12/11 14:21:54;;;;;;;3.10;2.90;;;;;;;;;;5095781;28;20023;-24
2022/12/11 14:24:20;;;;;;;3.22;2.92;;;;;;;;;;5095497;28;20336;-26
2022/12/11 14:26:50;;;;;;;4.18;3.25;;;;;;;;;;5095430;28;20024;-26
2022/12/11 14:29:27;;;;;;;3.15;2.95;;;;;;;;;;5095324;28;20077;-24
2022/12/11 14:31:53;;;;;;;3.15;2.97;;;;;;;;;;5095237;28;20039;-26
2022/12/11 14:34:32;;;;;;;3.28;2.78;;;;;;;;;;5095563;28;20107;-23
2022/12/11 14:36:59;;;;;;;2.90;2.70;;;;;;;;;;5095197;28;20462;-24
2022/12/11 14:39:27;;;;;;;3.20;3.00;;;;;;;;;;5095074;28;20082;-25
2022/12/11 14:42:03;;;;;;;4.45;3.40;;;;;;;;;;5095046;28;20016;-29
2022/12/11 14:44:30;;;;;;;2.83;2.63;;;;;;;;;;5095068;28;20050;-23
2022/12/11 14:47:02;;;;;;;2.70;2.50;;;;;;;;;;5095064;28;20469;-27
2022/12/11 14:49:45;;;;;;;3.40;2.90;;;;;;;;;;5095410;28;20034;-22
2022/12/11 14:52:25;;;;;;;3.25;3.05;;;;;;;;;;5094755;28;20451;-23
2022/12/11 14:54:55;;;;;;;3.28;3.08;;;;;;;;;;5094955;28;20028;-25
2022/12/11 14:57:23;;;;;;;3.27;3.07;;;;;;;;;;5094868;28;20047;-26
2022/12/11 14:59:51;;;;;;;3.60;3.30;;;;;;;;;;5095113;28;20024;-24
2022/12/11 15:02:24;;;;;;;3.25;3.05;;;;;;;;;;5095036;28;20392;-25